createdAt,value
2022-12-04T00:01:28.554Z,9.50
2022-12-04T00:03:58.113Z,8.93
2022-12-04T00:06:25.450Z,9.52
2022-12-04T00:08:53.745Z,9.50
2022-12-04T00:11:24.087Z,7.65
2022-12-04T00:13:51.176Z,10.00
2022-12-04T00:16:20.759Z,8.57
2022-12-04T00:18:47.723Z,9.00
2022-12-04T00:21:16.529Z,9.00
2022-12-04T00:23:43.488Z,9.52
2022-12-04T00:26:16.799Z,8.15
2022-12-04T00:28:44.448Z,7.72
2022-12-04T00:31:17.567Z,8.40
2022-12-04T00:33:45.065Z,7.07
2022-12-04T00:36:14.328Z,7.20
2022-12-04T00:38:42.722Z,7.68
2022-12-04T00:41:11.730Z,8.60
2022-12-04T00:43:38.628Z,8.15
2022-12-04T00:46:05.801Z,8.40
2022-12-04T00:48:32.915Z,8.20
2022-12-04T00:51:04.503Z,8.63
2022-12-04T00:53:31.274Z,8.50
2022-12-04T00:55:58.244Z,8.63
2022-12-04T00:58:25.203Z,8.18
2022-12-04T01:01:02.708Z,8.65
2022-12-04T01:03:29.844Z,7.82
2022-12-04T01:05:56.627Z,8.65
2022-12-04T01:08:23.344Z,7.90
2022-12-04T01:10:50.396Z,9.13
2022-12-04T01:13:17.172Z,9.00
2022-12-04T01:15:44.152Z,8.45
2022-12-04T01:18:12.273Z,8.55
2022-12-04T01:20:39.120Z,8.23
2022-12-04T01:23:06.712Z,9.48
2022-12-04T01:25:33.423Z,9.02
2022-12-04T01:28:00.132Z,9.95
2022-12-04T01:30:26.920Z,8.68
2022-12-04T01:32:53.646Z,9.52
2022-12-04T01:35:20.371Z,8.75
2022-12-04T01:37:47.124Z,8.02
2022-12-04T01:40:15.763Z,7.78
2022-12-04T01:42:42.554Z,7.55
2022-12-04T01:45:37.570Z,9.20
2022-12-04T01:48:19.489Z,8.10
2022-12-04T01:50:50.103Z,8.80
2022-12-04T01:53:17.708Z,7.60
2022-12-04T01:55:45.183Z,7.10
2022-12-04T01:58:12.688Z,8.50
2022-12-04T02:00:39.944Z,7.45
2022-12-04T02:03:06.949Z,8.40
2022-12-04T02:05:33.734Z,6.88
2022-12-04T02:08:05.608Z,9.00
2022-12-04T02:10:54.643Z,8.85
2022-12-04T02:14:23.233Z,7.93
2022-12-04T02:17:11.757Z,8.32
2022-12-04T02:19:57.279Z,9.15
2022-12-04T02:22:52.049Z,8.57
2022-12-04T02:25:30.071Z,8.15
2022-12-04T02:28:13.918Z,8.50
2022-12-04T02:30:43.842Z,7.30
2022-12-04T02:33:20.791Z,8.18
2022-12-04T02:36:07.036Z,8.48
2022-12-04T02:38:33.727Z,8.00
2022-12-04T02:41:17.177Z,8.60
2022-12-04T02:43:45.882Z,8.13
2022-12-04T02:46:21.805Z,7.75
2022-12-04T02:48:51.803Z,8.38
2022-12-04T02:51:21.696Z,8.85
2022-12-04T02:53:54.435Z,7.93
2022-12-04T02:56:26.699Z,8.50
2022-12-04T02:58:58.812Z,8.50
2022-12-04T03:01:32.097Z,9.50
2022-12-04T03:04:16.756Z,8.27
2022-12-04T03:06:47.899Z,8.63
2022-12-04T03:09:26.728Z,6.50
2022-12-04T03:12:00.897Z,8.25
2022-12-04T03:14:35.596Z,8.18
2022-12-04T03:17:08.420Z,8.18
2022-12-04T03:19:41.384Z,8.32
2022-12-04T03:22:14.921Z,7.85
2022-12-04T03:24:50.584Z,9.18
2022-12-04T03:27:33.416Z,7.13
2022-12-04T03:30:09.232Z,7.55
2022-12-04T03:32:51.043Z,8.18
2022-12-04T03:37:59.942Z,7.88
2022-12-04T03:40:38.173Z,7.07
2022-12-04T03:43:19.976Z,9.13
2022-12-04T03:48:31.215Z,7.35
2022-12-04T03:51:04.188Z,9.32
2022-12-04T03:53:39.315Z,7.40
2022-12-04T03:56:17.219Z,7.80
2022-12-04T03:58:49.239Z,6.82
2022-12-04T04:01:20.358Z,8.35
2022-12-04T04:03:51.532Z,8.90
2022-12-04T04:06:26.115Z,7.78
2022-12-04T04:08:56.987Z,7.57
2022-12-04T04:11:39.234Z,7.88
2022-12-04T04:14:30.632Z,7.90
2022-12-04T04:17:23.380Z,7.45
2022-12-04T04:20:15.135Z,8.68
2022-12-04T04:23:01.283Z,9.88
2022-12-04T04:25:29.261Z,7.07
2022-12-04T04:27:58.511Z,8.05
2022-12-04T04:30:27.808Z,8.27
2022-12-04T04:33:11.778Z,7.38
2022-12-04T04:36:02.708Z,7.90
2022-12-04T04:38:40.145Z,7.60
2022-12-04T04:41:15.096Z,8.63
2022-12-04T04:43:41.740Z,7.55
2022-12-04T04:46:31.106Z,7.47
2022-12-04T04:49:01.547Z,7.57
2022-12-04T04:51:30.295Z,7.82
2022-12-04T04:54:00.805Z,8.13
2022-12-04T04:56:27.755Z,6.45
2022-12-04T04:58:54.492Z,7.20
2022-12-04T05:01:24.825Z,6.43
2022-12-04T05:03:51.564Z,7.90
2022-12-04T05:06:18.344Z,7.68
2022-12-04T05:08:45.172Z,7.63
2022-12-04T05:11:16.275Z,7.57
2022-12-04T05:13:43.213Z,7.45
2022-12-04T05:16:15.103Z,7.25
2022-12-04T05:19:02.126Z,7.20
2022-12-04T05:21:28.968Z,6.40
2022-12-04T05:23:55.708Z,7.18
2022-12-04T05:26:22.443Z,7.25
2022-12-04T05:28:49.184Z,6.22
2022-12-04T05:31:16.078Z,7.32
2022-12-04T05:33:42.889Z,6.68
2022-12-04T05:36:11.043Z,7.18
2022-12-04T05:38:37.947Z,7.57
2022-12-04T05:41:06.120Z,7.57
2022-12-04T05:43:33.736Z,6.70
2022-12-04T05:46:06.040Z,6.57
2022-12-04T05:48:34.744Z,7.10
2022-12-04T05:51:06.362Z,7.22
2022-12-04T05:56:02.631Z,7.43
2022-12-04T05:58:29.462Z,6.47
2022-12-04T06:00:56.210Z,5.72
2022-12-04T06:03:23.154Z,6.80
2022-12-04T06:05:49.966Z,5.90
2022-12-04T06:08:16.914Z,6.82
2022-12-04T06:10:43.687Z,7.15
2022-12-04T06:13:11.642Z,6.80
2022-12-04T06:15:39.995Z,5.95
2022-12-04T06:18:07.088Z,6.72
2022-12-04T06:20:34.662Z,6.45
2022-12-04T06:23:01.762Z,6.97
2022-12-04T06:25:28.968Z,6.55
2022-12-04T06:27:55.920Z,7.10
2022-12-04T06:30:23.164Z,5.85
2022-12-04T06:32:49.937Z,6.85
2022-12-04T06:35:16.731Z,6.22
2022-12-04T06:37:43.528Z,6.45
2022-12-04T06:40:10.660Z,6.32
2022-12-04T06:42:37.437Z,7.20
2022-12-04T06:45:04.577Z,6.35
2022-12-04T06:47:31.390Z,7.18
2022-12-04T06:49:58.435Z,6.88
2022-12-04T06:52:25.460Z,7.28
2022-12-04T06:54:52.167Z,7.15
2022-12-04T06:57:18.909Z,6.03
2022-12-04T06:59:45.683Z,7.18
2022-12-04T07:02:12.540Z,7.07
2022-12-04T07:04:39.402Z,6.53
2022-12-04T07:07:09.958Z,6.10
2022-12-04T07:09:36.892Z,6.20
2022-12-04T07:12:04.089Z,7.10
2022-12-04T07:14:30.933Z,6.70
2022-12-04T07:16:58.510Z,6.75
2022-12-04T07:19:25.281Z,5.97
2022-12-04T07:21:52.040Z,7.40
2022-12-04T07:24:18.812Z,6.70
2022-12-04T07:26:46.040Z,6.75
2022-12-04T07:29:12.907Z,6.80
2022-12-04T07:31:39.715Z,6.75
2022-12-04T07:34:06.731Z,6.28
2022-12-04T07:36:33.512Z,5.22
2022-12-04T07:39:00.454Z,6.47
2022-12-04T07:41:27.170Z,6.65
2022-12-04T07:43:54.497Z,6.38
2022-12-04T07:46:24.182Z,5.72
2022-12-04T07:48:51.200Z,6.22
2022-12-04T07:51:24.130Z,5.88
2022-12-04T07:53:53.352Z,6.18
2022-12-04T07:56:20.692Z,6.45
2022-12-04T07:58:47.630Z,5.03
2022-12-04T08:01:20.141Z,5.75
2022-12-04T08:03:49.410Z,5.88
2022-12-04T08:06:21.808Z,6.03
2022-12-04T08:08:49.232Z,5.88
2022-12-04T08:11:18.840Z,6.15
2022-12-04T08:13:45.951Z,5.03
2022-12-04T08:16:13.930Z,5.88
2022-12-04T08:18:41.660Z,5.95
2022-12-04T08:21:14.106Z,5.95
2022-12-04T08:23:42.490Z,6.78
2022-12-04T08:26:10.847Z,5.07
2022-12-04T08:28:39.969Z,4.93
2022-12-04T08:31:08.163Z,5.40
2022-12-04T08:33:35.384Z,5.40
2022-12-04T08:36:02.536Z,5.65
2022-12-04T08:38:29.279Z,5.60
2022-12-04T08:41:01.171Z,5.28
2022-12-04T08:43:28.210Z,5.00
2022-12-04T08:46:03.333Z,5.82
2022-12-04T08:48:30.524Z,5.90
2022-12-04T08:50:57.440Z,6.47
2022-12-04T08:53:24.616Z,5.75
2022-12-04T08:55:54.630Z,6.07
2022-12-04T08:58:23.028Z,5.55
2022-12-04T09:00:50.060Z,6.13
2022-12-04T09:03:19.553Z,5.45
2022-12-04T09:05:46.635Z,5.30
2022-12-04T09:08:15.284Z,5.57
2022-12-04T09:10:42.628Z,5.70
2022-12-04T09:13:09.590Z,5.47
2022-12-04T09:15:40.048Z,4.88
2022-12-04T09:18:08.402Z,5.05
2022-12-04T09:20:36.500Z,4.60
2022-12-04T09:23:05.366Z,5.15
2022-12-04T09:25:36.458Z,4.60
2022-12-04T09:28:04.052Z,4.60
2022-12-04T09:30:30.803Z,4.78
2022-12-04T09:32:57.572Z,5.05
2022-12-04T09:35:24.439Z,5.13
2022-12-04T09:37:51.209Z,4.32
2022-12-04T09:40:47.795Z,4.07
2022-12-04T09:43:44.194Z,4.18
2022-12-04T09:46:18.827Z,4.22
2022-12-04T09:48:48.694Z,4.53
2022-12-04T09:51:19.667Z,4.45
2022-12-04T09:53:52.509Z,4.47
2022-12-04T09:56:21.375Z,4.35
2022-12-04T09:58:58.394Z,4.80
2022-12-04T10:01:35.391Z,4.60
2022-12-04T10:04:06.060Z,4.30
2022-12-04T10:06:47.786Z,4.00
2022-12-04T10:09:27.215Z,3.60
2022-12-04T10:12:13.741Z,3.28
2022-12-04T10:15:11.688Z,3.65
2022-12-04T10:18:01.047Z,3.65
2022-12-04T10:20:42.995Z,3.70
2022-12-04T10:23:31.444Z,3.95
2022-12-04T10:26:00.289Z,3.33
2022-12-04T10:28:27.043Z,3.60
2022-12-04T10:30:57.380Z,3.83
2022-12-04T10:33:33.536Z,3.83
2022-12-04T10:36:01.609Z,3.95
2022-12-04T10:38:49.886Z,3.20
2022-12-04T10:41:22.779Z,3.17
2022-12-04T10:43:50.307Z,3.65
2022-12-04T10:46:31.648Z,3.58
2022-12-04T10:49:04.471Z,3.90
2022-12-04T10:51:40.148Z,3.15
2022-12-04T10:54:37.410Z,3.40
2022-12-04T10:57:07.702Z,3.47
2022-12-04T10:59:35.794Z,3.60
2022-12-04T11:02:13.411Z,2.67
2022-12-04T11:04:42.003Z,3.17
2022-12-04T11:07:19.663Z,2.92
2022-12-04T11:10:29.688Z,3.70
2022-12-04T11:12:59.045Z,3.58
2022-12-04T11:15:26.567Z,3.53
2022-12-04T11:17:53.357Z,3.38
2022-12-04T11:20:24.011Z,3.05
2022-12-04T11:22:52.872Z,3.33
2022-12-04T11:25:22.721Z,3.45
2022-12-04T11:27:53.947Z,3.45
2022-12-04T11:30:40.968Z,3.53
2022-12-04T11:33:18.519Z,3.05
2022-12-04T11:35:52.469Z,3.50
2022-12-04T11:38:20.858Z,3.30
2022-12-04T11:40:53.868Z,3.30
2022-12-04T11:43:21.828Z,3.53
2022-12-04T11:46:04.674Z,3.35
2022-12-04T11:48:41.016Z,3.65
2022-12-04T11:51:33.671Z,3.60
2022-12-04T11:54:11.805Z,3.65
2022-12-04T11:56:45.795Z,3.38
2022-12-04T11:59:24.241Z,2.60
2022-12-04T12:02:00.000Z,2.67
2022-12-04T12:04:26.838Z,2.92
2022-12-04T12:07:21.002Z,3.20
2022-12-04T12:10:23.741Z,3.35
2022-12-04T12:12:56.454Z,3.30
2022-12-04T12:15:43.040Z,3.25
2022-12-04T12:18:22.472Z,3.00
2022-12-04T12:21:27.446Z,4.03
2022-12-04T12:24:15.398Z,4.22
2022-12-04T12:26:55.175Z,4.20
2022-12-04T12:29:56.753Z,4.05
2022-12-04T12:32:48.900Z,4.35
2022-12-04T12:35:24.870Z,4.05
2022-12-04T12:37:54.622Z,3.83
2022-12-04T12:40:39.913Z,3.88
2022-12-04T12:43:14.265Z,4.60
2022-12-04T12:45:50.178Z,4.20
2022-12-04T12:48:24.878Z,4.40
2022-12-04T12:51:28.687Z,3.95
2022-12-04T12:53:53.602Z,4.78
2022-12-04T12:56:31.439Z,4.60
2022-12-04T12:59:03.784Z,4.00
2022-12-04T13:02:00.235Z,4.28
2022-12-04T13:04:30.585Z,4.10
2022-12-04T13:07:32.421Z,4.32
2022-12-04T13:10:07.896Z,4.60
2022-12-04T13:12:47.596Z,4.63
2022-12-04T13:15:20.912Z,4.70
2022-12-04T13:17:50.869Z,5.43
2022-12-04T13:20:27.308Z,4.78
2022-12-04T13:23:16.048Z,4.53
2022-12-04T13:26:14.864Z,4.47
2022-12-04T13:28:48.726Z,5.47
2022-12-04T13:31:41.366Z,5.10
2022-12-04T13:34:59.502Z,5.63
2022-12-04T13:37:28.919Z,4.93
2022-12-04T13:40:29.764Z,4.60
2022-12-04T13:43:44.715Z,5.50
2022-12-04T13:46:30.345Z,5.32
2022-12-04T13:49:29.731Z,5.50
2022-12-04T13:51:58.328Z,5.30
2022-12-04T13:54:43.069Z,3.97
2022-12-04T13:57:16.722Z,4.50
2022-12-04T13:59:44.287Z,5.40
2022-12-04T14:02:22.586Z,4.60
2022-12-04T14:04:58.484Z,4.88
2022-12-04T14:07:25.415Z,4.60
2022-12-04T14:09:54.516Z,4.20
2022-12-04T14:12:28.306Z,4.72
2022-12-04T14:15:03.157Z,4.78
2022-12-04T14:17:37.075Z,4.38
2022-12-04T14:20:27.430Z,5.25
2022-12-04T14:22:54.232Z,4.95
2022-12-04T14:25:34.616Z,4.80
2022-12-04T14:28:35.973Z,4.80
2022-12-04T14:31:25.816Z,4.88
2022-12-04T14:33:58.492Z,4.10
2022-12-04T14:36:41.146Z,4.47
2022-12-04T14:39:20.979Z,4.40
2022-12-04T14:41:47.830Z,4.35
2022-12-04T14:44:27.193Z,4.72
2022-12-04T14:46:58.847Z,4.15
2022-12-04T14:52:28.538Z,4.80
2022-12-04T14:55:14.739Z,4.80
2022-12-04T14:57:44.609Z,4.05
2022-12-04T15:00:22.887Z,4.82
2022-12-04T15:02:55.104Z,4.70
2022-12-04T15:05:31.132Z,4.20
2022-12-04T15:08:01.462Z,4.40
2022-12-04T15:10:50.824Z,4.78
2022-12-04T15:13:28.067Z,4.25
2022-12-04T15:15:55.044Z,3.95
2022-12-04T15:18:21.956Z,4.22
2022-12-04T15:20:48.650Z,4.45
2022-12-04T15:23:35.012Z,3.92
2022-12-04T15:26:05.634Z,4.07
2022-12-04T15:28:42.047Z,4.25
2022-12-04T15:31:16.587Z,3.78
2022-12-04T15:33:45.107Z,3.53
2022-12-04T15:36:23.516Z,3.83
2022-12-04T15:38:52.871Z,3.35
2022-12-04T15:41:34.076Z,3.58
2022-12-04T15:44:01.672Z,3.83
2022-12-04T15:46:35.445Z,4.35
2022-12-04T15:49:17.333Z,4.38
2022-12-04T15:51:48.121Z,3.88
2022-12-04T15:54:26.323Z,4.28
2022-12-04T15:57:01.680Z,3.85
2022-12-04T15:59:30.309Z,3.85
2022-12-04T16:02:06.577Z,3.80
2022-12-04T16:04:35.635Z,3.13
2022-12-04T16:07:02.894Z,3.70
2022-12-04T16:09:30.426Z,3.42
2022-12-04T16:12:02.881Z,3.42
2022-12-04T16:14:30.176Z,3.08
2022-12-04T16:17:05.539Z,3.00
2022-12-04T16:19:38.751Z,3.20
2022-12-04T16:22:18.295Z,2.72
2022-12-04T16:24:47.878Z,3.13
2022-12-04T16:27:22.554Z,3.38
2022-12-04T16:29:50.283Z,3.20
2022-12-04T16:32:19.861Z,3.05
2022-12-04T16:34:47.301Z,3.60
2022-12-04T16:37:19.893Z,2.15
2022-12-04T16:39:47.446Z,3.70
2022-12-04T16:42:22.302Z,3.13
2022-12-04T16:44:50.092Z,3.08
2022-12-04T16:47:17.687Z,3.53
2022-12-04T16:49:47.338Z,2.67
2022-12-04T16:52:14.387Z,3.75
2022-12-04T16:54:41.543Z,3.50
2022-12-04T16:57:09.239Z,3.05
2022-12-04T16:59:36.755Z,3.92
2022-12-04T17:02:06.987Z,3.30
2022-12-04T17:04:33.982Z,4.25
2022-12-04T17:07:00.836Z,3.55
2022-12-04T17:09:27.540Z,4.18
2022-12-04T17:11:54.269Z,4.47
2022-12-04T17:14:21.047Z,4.63
2022-12-04T17:16:48.116Z,4.15
2022-12-04T17:19:15.443Z,4.00
2022-12-04T17:21:42.255Z,4.13
2022-12-04T17:24:09.324Z,4.43
2022-12-04T17:26:36.235Z,3.25
2022-12-04T17:29:02.920Z,3.47
2022-12-04T17:31:29.776Z,4.50
2022-12-04T17:33:56.672Z,4.07
2022-12-04T17:36:26.187Z,4.18
2022-12-04T17:38:55.441Z,4.45
2022-12-04T17:41:22.547Z,3.88
2022-12-04T17:43:49.383Z,4.15
2022-12-04T17:46:21.514Z,4.25
2022-12-04T17:48:49.415Z,3.97
2022-12-04T17:51:23.727Z,4.38
2022-12-04T17:53:51.444Z,4.30
2022-12-04T17:56:22.064Z,4.15
2022-12-04T17:58:49.849Z,4.10
2022-12-04T18:01:19.515Z,4.53
2022-12-04T18:03:57.683Z,4.30
2022-12-04T18:06:27.077Z,4.30
2022-12-04T18:08:54.763Z,4.40
2022-12-04T18:11:23.947Z,4.13
2022-12-04T18:13:56.789Z,4.60
2022-12-04T18:16:24.837Z,4.25
2022-12-04T18:18:56.535Z,4.63
2022-12-04T18:23:50.750Z,4.30
2022-12-04T18:26:20.431Z,5.30
2022-12-04T18:28:48.619Z,5.35
2022-12-04T18:31:17.004Z,4.75
2022-12-04T18:33:44.114Z,5.07
2022-12-04T18:36:17.116Z,4.60
2022-12-04T18:38:44.615Z,4.45
2022-12-04T18:41:13.803Z,5.00
2022-12-04T18:43:43.901Z,4.63
2022-12-04T18:46:14.362Z,4.65
2022-12-04T18:48:42.384Z,4.75
2022-12-04T18:51:20.560Z,5.75
2022-12-04T18:53:48.513Z,4.93
2022-12-04T18:56:15.763Z,5.07
2022-12-04T18:58:42.865Z,4.70
2022-12-04T19:01:11.331Z,5.00
2022-12-04T19:03:38.316Z,5.13
2022-12-04T19:06:05.627Z,5.13
2022-12-04T19:08:35.009Z,5.28
2022-12-04T19:11:15.860Z,4.70
2022-12-04T19:13:42.686Z,4.68
2022-12-04T19:16:14.054Z,4.78
2022-12-04T19:18:51.101Z,4.78
2022-12-04T19:21:18.473Z,4.63
2022-12-04T19:23:51.402Z,4.65
2022-12-04T19:26:18.295Z,4.80
2022-12-04T19:28:45.348Z,5.60
2022-12-04T19:31:16.929Z,5.40
2022-12-04T19:36:11.973Z,4.70
2022-12-04T19:38:39.479Z,5.55
2022-12-04T19:41:12.180Z,5.07
2022-12-04T19:43:41.037Z,6.18
2022-12-04T19:46:09.828Z,5.25
2022-12-04T19:48:37.969Z,4.60
2022-12-04T19:51:10.188Z,5.07
2022-12-04T19:53:40.886Z,6.18
2022-12-04T19:56:17.596Z,5.07
2022-12-04T19:58:44.319Z,4.90
2022-12-04T20:01:14.516Z,6.70
2022-12-04T20:03:41.764Z,5.32
2022-12-04T20:06:16.631Z,5.35
2022-12-04T20:08:43.388Z,5.00
2022-12-04T20:11:13.429Z,5.43
2022-12-04T20:13:40.573Z,4.65
2022-12-04T20:16:09.937Z,4.88
2022-12-04T20:18:41.378Z,4.30
2022-12-04T20:21:12.086Z,5.55
2022-12-04T20:23:46.543Z,5.38
2022-12-04T20:26:14.369Z,4.97
2022-12-04T20:28:41.716Z,4.25
2022-12-04T20:31:16.401Z,5.20
2022-12-04T20:33:45.045Z,4.82
2022-12-04T20:36:12.979Z,4.80
2022-12-04T20:38:41.531Z,4.82
2022-12-04T20:41:10.524Z,5.78
2022-12-04T20:43:37.303Z,5.40
2022-12-04T20:46:15.609Z,5.72
2022-12-04T20:48:48.823Z,5.55
2022-12-04T20:51:18.527Z,5.22
2022-12-04T20:53:46.688Z,5.22
2022-12-04T20:56:13.769Z,4.82
2022-12-04T20:58:41.277Z,5.28
2022-12-04T21:01:14.170Z,5.75
2022-12-04T21:03:42.151Z,5.68
2022-12-04T21:06:17.942Z,4.47
2022-12-04T21:08:53.541Z,5.95
2022-12-04T21:11:32.043Z,5.50
2022-12-04T21:14:18.851Z,5.38
2022-12-04T21:16:46.328Z,5.93
2022-12-04T21:19:14.786Z,5.55
2022-12-04T21:21:42.197Z,6.30
2022-12-04T21:24:12.370Z,6.10
2022-12-04T21:26:39.385Z,5.80
2022-12-04T21:29:07.801Z,5.43
2022-12-04T21:31:36.297Z,6.28
2022-12-04T21:34:05.591Z,6.40
2022-12-04T21:36:32.350Z,5.78
2022-12-04T21:38:59.108Z,5.93
2022-12-04T21:41:44.560Z,5.13
2022-12-04T21:44:17.407Z,5.60
2022-12-04T21:46:46.275Z,4.60
2022-12-04T21:49:14.155Z,5.82
2022-12-04T21:51:57.443Z,5.03
2022-12-04T21:54:26.119Z,6.05
2022-12-04T21:56:53.111Z,5.45
2022-12-04T21:59:19.874Z,5.15
2022-12-04T22:01:47.359Z,7.18
2022-12-04T22:04:14.333Z,5.70
2022-12-04T22:06:41.047Z,5.63
2022-12-04T22:09:10.064Z,5.13
2022-12-04T22:11:38.093Z,6.25
2022-12-04T22:14:04.928Z,6.20
2022-12-04T22:16:34.640Z,5.63
2022-12-04T22:19:04.124Z,6.35
2022-12-04T22:21:30.921Z,5.93
2022-12-04T22:24:17.732Z,5.93
2022-12-04T22:26:44.476Z,5.90
2022-12-04T22:29:42.061Z,5.80
2022-12-04T22:31:58.028Z,5.57
2022-12-04T22:34:24.772Z,5.28
2022-12-04T22:36:51.448Z,5.90
2022-12-04T22:39:18.243Z,5.57
2022-12-04T22:41:45.043Z,6.18
2022-12-04T22:44:11.736Z,6.57
2022-12-04T22:46:38.557Z,5.82
2022-12-04T22:49:05.411Z,6.35
2022-12-04T22:51:32.128Z,5.47
2022-12-04T22:53:58.852Z,6.45
2022-12-04T22:56:28.608Z,5.50
2022-12-04T22:58:56.345Z,5.82
2022-12-04T23:01:25.597Z,5.75
2022-12-04T23:03:53.775Z,5.60
2022-12-04T23:06:22.766Z,6.45
2022-12-04T23:08:53.798Z,6.70
2022-12-04T23:11:21.743Z,5.65
2022-12-04T23:13:53.623Z,5.47
2022-12-04T23:16:22.544Z,5.68
2022-12-04T23:18:50.273Z,5.90
2022-12-04T23:21:18.817Z,5.82
2022-12-04T23:23:47.031Z,6.35
2022-12-04T23:26:16.775Z,5.80
2022-12-04T23:28:43.960Z,5.82
2022-12-04T23:31:11.584Z,6.28
2022-12-04T23:33:39.470Z,4.50
2022-12-04T23:36:07.871Z,5.45
2022-12-04T23:38:36.261Z,6.35
2022-12-04T23:41:05.318Z,6.10
2022-12-04T23:43:33.087Z,5.57
2022-12-04T23:45:59.927Z,6.28
2022-12-04T23:48:27.376Z,6.13
2022-12-04T23:50:54.425Z,6.28
2022-12-04T23:53:21.719Z,6.47
2022-12-04T23:56:04.596Z,7.15
2022-12-04T23:58:32.476Z,5.55
